createdAt,value
2022-12-17T00:01:06.858Z,99082.91
2022-12-17T00:03:54.055Z,99084.89
2022-12-17T00:06:43.358Z,99087.66
2022-12-17T00:09:29.848Z,99093.67
2022-12-17T00:12:16.472Z,99098.03
2022-12-17T00:15:02.871Z,99102.91
2022-12-17T00:17:49.356Z,99108.26
2022-12-17T00:20:35.839Z,99111.85
2022-12-17T00:23:23.775Z,99110.27
2022-12-17T00:26:11.828Z,99110.75
2022-12-17T00:28:58.957Z,99121.75
2022-12-17T00:31:46.989Z,99125.91
2022-12-17T00:34:33.610Z,99114.73
2022-12-17T00:37:20.247Z,99121.35
2022-12-17T00:40:06.664Z,99129.51
2022-12-17T00:43:00.557Z,99128.66
2022-12-17T00:45:47.442Z,99132.44
2022-12-17T00:48:34.312Z,99126.65
2022-12-17T00:51:21.135Z,99121.27
2022-12-17T00:54:07.619Z,99124.03
2022-12-17T00:56:54.134Z,99121.95
2022-12-17T00:59:42.762Z,99132.35
2022-12-17T01:02:29.246Z,99137.33
2022-12-17T01:05:16.340Z,99139.80
2022-12-17T01:08:02.923Z,99142.41
2022-12-17T01:10:49.393Z,99136.13
2022-12-17T01:13:37.153Z,99135.20
2022-12-17T01:16:24.975Z,99144.92
2022-12-17T01:19:12.388Z,99149.16
2022-12-17T01:21:58.821Z,99148.82
2022-12-17T01:24:45.427Z,99152.55
2022-12-17T01:27:32.095Z,99149.20
2022-12-17T01:30:18.465Z,99153.73
2022-12-17T01:33:04.873Z,99160.84
2022-12-17T01:35:52.428Z,99168.98
2022-12-17T01:38:38.889Z,99170.45
2022-12-17T01:41:25.438Z,99169.66
2022-12-17T01:44:12.004Z,99170.89
2022-12-17T01:47:00.946Z,99172.95
2022-12-17T01:49:47.512Z,99171.00
2022-12-17T01:52:35.187Z,99172.55
2022-12-17T01:55:23.208Z,99174.81
2022-12-17T01:58:09.751Z,99176.94
2022-12-17T02:00:56.204Z,99177.33
2022-12-17T02:03:42.520Z,99175.58
2022-12-17T02:06:46.319Z,99176.79
2022-12-17T02:10:05.443Z,99166.95
2022-12-17T02:13:06.464Z,99161.25
2022-12-17T02:16:01.158Z,99157.46
2022-12-17T02:18:55.005Z,99157.45
2022-12-17T02:21:44.832Z,99155.80
2022-12-17T02:24:51.862Z,99158.27
2022-12-17T02:27:40.917Z,99158.06
2022-12-17T02:30:28.966Z,99158.73
2022-12-17T02:33:15.297Z,99154.37
2022-12-17T02:36:08.505Z,99161.25
2022-12-17T02:38:56.701Z,99165.54
2022-12-17T02:41:48.140Z,99164.13
2022-12-17T02:44:37.406Z,99164.96
2022-12-17T02:47:27.336Z,99166.48
2022-12-17T02:50:13.893Z,99168.25
2022-12-17T02:53:04.440Z,99173.95
2022-12-17T02:55:51.623Z,99175.39
2022-12-17T02:58:38.141Z,99172.05
2022-12-17T03:01:25.296Z,99176.13
2022-12-17T03:04:12.033Z,99181.76
2022-12-17T03:06:58.536Z,99185.53
2022-12-17T03:09:45.843Z,99185.29
2022-12-17T03:12:33.070Z,99185.73
2022-12-17T03:15:19.635Z,99173.53
2022-12-17T03:18:06.444Z,99167.84
2022-12-17T03:20:52.978Z,99166.98
2022-12-17T03:23:39.684Z,99166.36
2022-12-17T03:26:25.931Z,99166.41
2022-12-17T03:29:12.500Z,99162.71
2022-12-17T03:31:59.123Z,99163.65
2022-12-17T03:34:45.298Z,99162.70
2022-12-17T03:37:31.959Z,99154.73
2022-12-17T03:40:18.584Z,99148.05
2022-12-17T03:43:05.107Z,99143.00
2022-12-17T03:45:51.757Z,99141.63
2022-12-17T03:48:38.315Z,99148.08
2022-12-17T03:51:26.540Z,99155.92
2022-12-17T03:54:13.167Z,99155.63
2022-12-17T03:56:59.726Z,99163.73
2022-12-17T03:59:46.207Z,99158.08
2022-12-17T04:02:32.980Z,99171.52
2022-12-17T04:05:20.527Z,99178.41
2022-12-17T04:08:07.248Z,99181.67
2022-12-17T04:10:53.907Z,99189.04
2022-12-17T04:13:41.454Z,99202.64
2022-12-17T04:16:28.566Z,99202.76
2022-12-17T04:19:15.020Z,99208.86
2022-12-17T04:22:01.599Z,99228.18
2022-12-17T04:24:47.933Z,99242.79
2022-12-17T04:27:34.392Z,99251.66
2022-12-17T04:30:21.050Z,99260.08
2022-12-17T04:33:07.527Z,99265.02
2022-12-17T04:35:54.054Z,99264.17
2022-12-17T04:38:40.584Z,99271.51
2022-12-17T04:41:27.147Z,99271.98
2022-12-17T04:44:13.793Z,99265.87
2022-12-17T04:46:59.984Z,99260.73
2022-12-17T04:49:46.441Z,99267.39
2022-12-17T04:52:32.999Z,99272.52
2022-12-17T04:55:19.573Z,99279.41
2022-12-17T04:58:06.161Z,99278.05
2022-12-17T05:00:52.698Z,99285.92
2022-12-17T05:03:39.914Z,99286.42
2022-12-17T05:06:27.394Z,99284.80
2022-12-17T05:09:13.923Z,99288.30
2022-12-17T05:12:00.523Z,99295.20
2022-12-17T05:14:47.027Z,99297.03
2022-12-17T05:17:33.671Z,99292.82
2022-12-17T05:20:20.089Z,99290.07
2022-12-17T05:23:06.512Z,99292.58
2022-12-17T05:25:53.156Z,99299.61
2022-12-17T05:28:39.546Z,99303.30
2022-12-17T05:31:26.036Z,99306.60
2022-12-17T05:34:12.560Z,99312.84
2022-12-17T05:36:58.897Z,99314.60
2022-12-17T05:39:45.382Z,99308.55
2022-12-17T05:42:31.940Z,99312.64
2022-12-17T05:45:18.397Z,99311.86
2022-12-17T05:48:04.885Z,99311.77
2022-12-17T05:50:51.584Z,99323.23
2022-12-17T05:53:38.461Z,99332.78
2022-12-17T05:56:25.521Z,99335.28
2022-12-17T05:59:12.128Z,99337.66
2022-12-17T06:01:58.548Z,99334.54
2022-12-17T06:04:44.963Z,99331.48
2022-12-17T06:07:31.345Z,99335.02
2022-12-17T06:10:17.864Z,99337.10
2022-12-17T06:13:14.160Z,99334.20
2022-12-17T06:16:00.726Z,99336.77
2022-12-17T06:18:47.332Z,99345.14
2022-12-17T06:21:33.915Z,99343.60
2022-12-17T06:24:20.438Z,99334.63
2022-12-17T06:27:07.071Z,99328.98
2022-12-17T06:29:53.770Z,99338.95
2022-12-17T06:32:40.275Z,99349.92
2022-12-17T06:35:27.435Z,99352.07
2022-12-17T06:38:18.619Z,99353.34
2022-12-17T06:41:05.231Z,99355.25
2022-12-17T06:43:51.721Z,99364.42
2022-12-17T06:46:38.410Z,99369.42
2022-12-17T06:49:24.896Z,99382.10
2022-12-17T06:52:11.649Z,99385.89
2022-12-17T06:54:58.441Z,99384.69
2022-12-17T06:57:50.050Z,99389.88
2022-12-17T07:00:37.112Z,99401.75
2022-12-17T07:03:23.775Z,99406.80
2022-12-17T07:06:10.133Z,99416.88
2022-12-17T07:08:56.618Z,99419.13
2022-12-17T07:11:43.690Z,99423.73
2022-12-17T07:14:30.264Z,99427.07
2022-12-17T07:17:16.762Z,99429.63
2022-12-17T07:20:03.384Z,99440.05
2022-12-17T07:22:54.200Z,99442.99
2022-12-17T07:25:45.822Z,99453.02
2022-12-17T07:28:33.207Z,99462.17
2022-12-17T07:31:19.792Z,99468.67
2022-12-17T07:34:06.351Z,99468.20
2022-12-17T07:36:52.928Z,99466.96
2022-12-17T07:39:39.437Z,99466.68
2022-12-17T07:42:25.901Z,99466.76
2022-12-17T07:45:12.492Z,99464.10
2022-12-17T07:47:58.986Z,99466.44
2022-12-17T07:50:45.430Z,99465.81
2022-12-17T07:53:31.917Z,99466.33
2022-12-17T07:56:18.399Z,99468.06
2022-12-17T07:59:04.906Z,99467.15
2022-12-17T08:01:51.615Z,99475.07
2022-12-17T08:04:38.224Z,99480.66
2022-12-17T08:07:24.684Z,99487.52
2022-12-17T08:10:11.203Z,99486.88
2022-12-17T08:12:57.719Z,99495.92
2022-12-17T08:15:44.210Z,99499.81
2022-12-17T08:18:30.880Z,99504.95
2022-12-17T08:21:17.422Z,99512.60
2022-12-17T08:24:03.989Z,99521.05
2022-12-17T08:26:50.652Z,99523.83
2022-12-17T08:29:37.100Z,99525.20
2022-12-17T08:32:23.636Z,99526.76
2022-12-17T08:35:10.252Z,99531.38
2022-12-17T08:37:56.792Z,99537.84
2022-12-17T08:40:43.488Z,99536.34
2022-12-17T08:43:30.092Z,99532.32
2022-12-17T08:46:16.531Z,99531.92
2022-12-17T08:49:02.997Z,99531.06
2022-12-17T08:51:49.701Z,99527.95
2022-12-17T08:54:36.194Z,99531.13
2022-12-17T08:57:31.096Z,99532.14
2022-12-17T09:00:18.643Z,99533.64
2022-12-17T09:03:18.737Z,99532.55
2022-12-17T09:06:05.100Z,99534.68
2022-12-17T09:08:51.615Z,99533.83
2022-12-17T09:11:38.288Z,99540.67
2022-12-17T09:14:24.863Z,99542.02
2022-12-17T09:17:11.519Z,99540.55
2022-12-17T09:19:58.010Z,99542.56
2022-12-17T09:22:44.496Z,99540.36
2022-12-17T09:25:31.042Z,99540.77
2022-12-17T09:28:21.809Z,99541.40
2022-12-17T09:31:08.544Z,99532.87
2022-12-17T09:33:55.184Z,99531.67
2022-12-17T09:36:44.280Z,99528.26
2022-12-17T09:39:34.564Z,99530.55
2022-12-17T09:42:30.573Z,99527.94
2022-12-17T09:45:26.235Z,99539.94
2022-12-17T09:48:30.884Z,99550.10
2022-12-17T09:51:18.925Z,99560.96
2022-12-17T09:54:08.531Z,99566.23
2022-12-17T09:56:57.296Z,99565.11
2022-12-17T09:59:47.559Z,99570.55
2022-12-17T10:02:40.877Z,99567.33
2022-12-17T10:05:33.103Z,99571.04
2022-12-17T10:08:19.598Z,99571.46
2022-12-17T10:11:06.064Z,99571.55
2022-12-17T10:13:52.719Z,99574.95
2022-12-17T10:16:39.264Z,99574.39
2022-12-17T10:19:32.175Z,99575.63
2022-12-17T10:22:33.319Z,99585.20
2022-12-17T10:25:37.268Z,99584.66
2022-12-17T10:28:25.277Z,99584.42
2022-12-17T10:31:11.857Z,99591.05
2022-12-17T10:33:59.620Z,99589.02
2022-12-17T10:36:47.390Z,99589.09
2022-12-17T10:39:42.767Z,99589.48
2022-12-17T10:42:56.021Z,99598.18
2022-12-17T10:45:48.141Z,99612.17
2022-12-17T10:48:43.962Z,99625.93
2022-12-17T10:51:38.297Z,99634.29
2022-12-17T10:54:49.974Z,99636.19
2022-12-17T10:57:42.942Z,99637.52
2022-12-17T11:01:05.964Z,99637.61
2022-12-17T11:03:58.109Z,99642.54
2022-12-17T11:06:50.444Z,99635.73
2022-12-17T11:09:50.675Z,99646.58
2022-12-17T11:12:39.194Z,99645.32
2022-12-17T11:15:49.304Z,99644.35
2022-12-17T11:18:39.611Z,99648.85
2022-12-17T11:21:38.872Z,99652.27
2022-12-17T11:24:31.057Z,99656.89
2022-12-17T11:27:18.192Z,99658.61
2022-12-17T11:30:04.888Z,99657.98
2022-12-17T11:33:10.432Z,99654.61
2022-12-17T11:36:07.106Z,99656.16
2022-12-17T11:39:17.211Z,99660.60
2022-12-17T11:42:22.511Z,99665.54
2022-12-17T11:45:23.924Z,99668.62
2022-12-17T11:48:25.392Z,99677.09
2022-12-17T11:51:45.149Z,99683.64
2022-12-17T11:54:41.324Z,99685.59
2022-12-17T11:57:40.581Z,99684.10
2022-12-17T12:00:36.462Z,99685.90
2022-12-17T12:04:05.852Z,99694.66
2022-12-17T12:07:08.229Z,99699.98
2022-12-17T12:10:12.262Z,99695.02
2022-12-17T12:13:26.698Z,99693.54
2022-12-17T12:16:45.144Z,99688.66
2022-12-17T12:19:41.341Z,99690.89
2022-12-17T12:22:54.201Z,99690.91
2022-12-17T12:25:47.351Z,99694.08
2022-12-17T12:28:45.356Z,99698.78
2022-12-17T12:31:52.846Z,99707.75
2022-12-17T12:34:46.557Z,99712.00
2022-12-17T12:37:35.861Z,99713.91
2022-12-17T12:40:38.418Z,99719.77
2022-12-17T12:43:32.517Z,99714.90
2022-12-17T12:46:32.351Z,99718.66
2022-12-17T12:49:44.915Z,99727.41
2022-12-17T12:52:37.621Z,99731.33
2022-12-17T12:55:24.209Z,99734.34
2022-12-17T12:58:21.004Z,99733.84
2022-12-17T13:01:07.806Z,99730.91
2022-12-17T13:04:03.799Z,99730.81
2022-12-17T13:06:43.689Z,99726.88
2022-12-17T13:09:18.046Z,99734.00
2022-12-17T13:11:48.374Z,99732.77
2022-12-17T13:14:20.737Z,99736.27
2022-12-17T13:16:48.541Z,99740.16
2022-12-17T13:19:32.376Z,99740.11
2022-12-17T13:22:28.669Z,99746.52
2022-12-17T13:25:17.495Z,99747.30
2022-12-17T13:27:45.789Z,99746.04
2022-12-17T13:30:29.454Z,99751.61
2022-12-17T13:33:05.466Z,99753.10
2022-12-17T13:35:39.156Z,99756.39
2022-12-17T13:38:38.736Z,99752.06
2022-12-17T13:41:13.115Z,99755.38
2022-12-17T13:43:47.278Z,99754.99
2022-12-17T13:46:47.081Z,99757.66
2022-12-17T13:49:29.054Z,99758.98
2022-12-17T13:52:11.461Z,99762.87
2022-12-17T13:54:39.933Z,99758.84
2022-12-17T13:57:15.618Z,99759.69
2022-12-17T13:59:54.685Z,99763.11
2022-12-17T14:02:35.156Z,99771.06
2022-12-17T14:05:08.091Z,99772.48
2022-12-17T14:07:38.841Z,99775.61
2022-12-17T14:10:15.486Z,99779.67
2022-12-17T14:12:43.939Z,99782.73
2022-12-17T14:15:21.067Z,99788.76
2022-12-17T14:17:49.566Z,99789.71
2022-12-17T14:20:21.212Z,99789.89
2022-12-17T14:22:54.471Z,99793.30
2022-12-17T14:25:39.669Z,99796.59
2022-12-17T14:28:32.514Z,99800.30
2022-12-17T14:34:08.262Z,99818.26
2022-12-17T14:36:39.011Z,99823.98
2022-12-17T14:39:17.832Z,99828.59
2022-12-17T14:42:04.436Z,99833.60
2022-12-17T14:44:32.500Z,99840.50
2022-12-17T14:47:12.772Z,99842.13
2022-12-17T14:49:56.478Z,99844.07
2022-12-17T14:52:42.958Z,99851.52
2022-12-17T14:55:23.107Z,99854.88
2022-12-17T14:57:52.379Z,99857.21
2022-12-17T15:00:21.278Z,99858.54
2022-12-17T15:02:52.968Z,99857.20
2022-12-17T15:05:21.330Z,99860.45
2022-12-17T15:07:49.204Z,99863.05
2022-12-17T15:10:20.739Z,99864.27
2022-12-17T15:12:51.493Z,99870.50
2022-12-17T15:15:21.595Z,99873.23
2022-12-17T15:17:49.591Z,99876.40
2022-12-17T15:20:20.299Z,99874.75
2022-12-17T15:22:48.516Z,99876.59
2022-12-17T15:25:18.451Z,99866.86
2022-12-17T15:27:46.785Z,99871.88
2022-12-17T15:30:17.899Z,99881.42
2022-12-17T15:32:46.233Z,99885.67
2022-12-17T15:35:14.988Z,99887.40
2022-12-17T15:37:42.767Z,99896.29
2022-12-17T15:40:12.164Z,99899.14
2022-12-17T15:43:04.455Z,99904.15
2022-12-17T15:45:34.106Z,99904.34
2022-12-17T15:48:02.111Z,99907.41
2022-12-17T15:50:30.176Z,99912.46
2022-12-17T15:52:58.213Z,99916.34
2022-12-17T15:55:26.097Z,99919.52
2022-12-17T15:57:54.156Z,99922.95
2022-12-17T16:00:22.293Z,99927.24
2022-12-17T16:02:50.968Z,99929.77
2022-12-17T16:05:19.588Z,99933.16
2022-12-17T16:07:49.982Z,99933.25
2022-12-17T16:10:18.029Z,99930.75
2022-12-17T16:12:45.824Z,99933.90
2022-12-17T16:15:13.757Z,99940.02
2022-12-17T16:17:41.987Z,99947.31
2022-12-17T16:20:10.574Z,99948.86
2022-12-17T16:22:38.423Z,99955.98
2022-12-17T16:25:07.009Z,99957.13
2022-12-17T16:27:34.718Z,99958.46
2022-12-17T16:30:03.698Z,99962.02
2022-12-17T16:32:36.080Z,99963.08
2022-12-17T16:35:05.246Z,99963.31
2022-12-17T16:37:32.973Z,99960.72
2022-12-17T16:40:00.942Z,99960.40
2022-12-17T16:42:29.064Z,99963.83
2022-12-17T16:44:56.736Z,99963.52
2022-12-17T16:47:24.955Z,99967.88
2022-12-17T16:49:52.706Z,99971.21
2022-12-17T16:52:20.633Z,99973.23
2022-12-17T16:54:48.537Z,99978.70
2022-12-17T16:57:16.164Z,99975.73
2022-12-17T16:59:43.859Z,99974.80
2022-12-17T17:02:15.601Z,99971.60
2022-12-17T17:04:43.577Z,99972.89
2022-12-17T17:07:11.477Z,99970.73
2022-12-17T17:09:39.455Z,99975.66
2022-12-17T17:12:09.038Z,99978.19
2022-12-17T17:14:37.237Z,99973.34
2022-12-17T17:17:05.085Z,99976.63
2022-12-17T17:19:32.841Z,99972.05
2022-12-17T17:22:00.499Z,99980.86
2022-12-17T17:24:28.226Z,99983.20
2022-12-17T17:26:55.974Z,99990.93
2022-12-17T17:29:23.888Z,99982.30
2022-12-17T17:34:40.008Z,99992.77
2022-12-17T17:37:07.938Z,99986.38
2022-12-17T17:39:35.799Z,99994.64
2022-12-17T17:42:03.655Z,99996.80
2022-12-17T17:44:31.827Z,99999.39
2022-12-17T17:46:59.987Z,100007.64
2022-12-17T17:49:27.930Z,100014.16
2022-12-17T17:52:12.077Z,100020.33
2022-12-17T17:54:40.167Z,100019.12
2022-12-17T17:57:09.131Z,100021.02
2022-12-17T17:59:37.726Z,100022.14
2022-12-17T18:02:05.724Z,100029.70
2022-12-17T18:04:33.529Z,100028.71
2022-12-17T18:07:25.187Z,100026.11
2022-12-17T18:09:49.159Z,100023.98
2022-12-17T18:12:36.116Z,100027.80
2022-12-17T18:15:14.214Z,100033.04
2022-12-17T18:17:44.869Z,100036.54
2022-12-17T18:20:13.352Z,100040.13
2022-12-17T18:22:41.167Z,100040.92
2022-12-17T18:25:08.849Z,100042.17
2022-12-17T18:27:36.752Z,100052.66
2022-12-17T18:30:05.133Z,100057.27
2022-12-17T18:32:33.012Z,100064.16
2022-12-17T18:35:00.936Z,100068.50
2022-12-17T18:37:28.709Z,100072.27
2022-12-17T18:39:56.647Z,100082.67
2022-12-17T18:42:43.252Z,100085.23
2022-12-17T18:45:10.981Z,100086.03
2022-12-17T18:47:38.727Z,100089.40
2022-12-17T18:50:06.884Z,100093.85
2022-12-17T18:52:34.766Z,100094.42
2022-12-17T18:55:02.582Z,100095.91
2022-12-17T18:57:30.356Z,100099.94
2022-12-17T18:59:58.171Z,100107.06
2022-12-17T19:02:26.036Z,100101.72
2022-12-17T19:04:54.058Z,100099.67
2022-12-17T19:07:22.000Z,100099.90
2022-12-17T19:09:50.048Z,100101.11
2022-12-17T19:12:17.768Z,100104.88
2022-12-17T19:14:45.521Z,100110.84
2022-12-17T19:17:13.233Z,100107.75
2022-12-17T19:19:40.960Z,100106.77
2022-12-17T19:22:08.635Z,100110.48
2022-12-17T19:24:36.367Z,100110.47
2022-12-17T19:27:04.400Z,100112.66
2022-12-17T19:29:32.297Z,100117.34
2022-12-17T19:32:00.569Z,100122.02
2022-12-17T19:34:28.480Z,100125.84
2022-12-17T19:36:56.334Z,100124.20
2022-12-17T19:39:24.144Z,100124.88
2022-12-17T19:41:51.981Z,100128.54
2022-12-17T19:44:20.988Z,100128.84
2022-12-17T19:46:48.733Z,100133.24
2022-12-17T19:49:17.149Z,100136.26
2022-12-17T19:51:45.344Z,100140.50
2022-12-17T19:54:15.277Z,100145.92
2022-12-17T19:56:44.440Z,100150.35
2022-12-17T19:59:12.907Z,100155.60
2022-12-17T20:01:43.996Z,100155.81
2022-12-17T20:04:14.048Z,100162.58
2022-12-17T20:06:42.896Z,100160.45
2022-12-17T20:09:10.707Z,100165.42
2022-12-17T20:11:38.707Z,100168.20
2022-12-17T20:14:12.279Z,100169.25
2022-12-17T20:16:43.082Z,100166.70
2022-12-17T20:19:14.042Z,100170.05
2022-12-17T20:21:42.404Z,100175.44
2022-12-17T20:24:10.971Z,100175.02
2022-12-17T20:26:39.263Z,100177.20
2022-12-17T20:29:08.061Z,100179.58
2022-12-17T20:31:36.981Z,100190.31
2022-12-17T20:34:07.260Z,100190.91
2022-12-17T20:36:36.030Z,100195.64
2022-12-17T20:39:04.555Z,100201.59
2022-12-17T20:41:33.074Z,100206.89
2022-12-17T20:44:04.188Z,100207.14
2022-12-17T20:46:32.211Z,100213.17
2022-12-17T20:49:01.291Z,100214.35
2022-12-17T20:51:30.135Z,100227.27
2022-12-17T20:54:00.115Z,100229.38
2022-12-17T20:56:30.343Z,100235.57
2022-12-17T20:59:02.262Z,100237.09
2022-12-17T21:01:31.997Z,100239.86
2022-12-17T21:04:01.596Z,100240.77
2022-12-17T21:06:45.483Z,100236.95
2022-12-17T21:09:16.272Z,100242.18
2022-12-17T21:11:44.113Z,100245.60
2022-12-17T21:14:14.569Z,100249.53
2022-12-17T21:16:43.120Z,100248.29
2022-12-17T21:19:17.454Z,100250.98
2022-12-17T21:21:45.481Z,100254.98
2022-12-17T21:24:13.220Z,100260.55
2022-12-17T21:26:43.037Z,100263.48
2022-12-17T21:29:11.898Z,100263.91
2022-12-17T21:31:48.466Z,100264.27
2022-12-17T21:34:22.896Z,100265.95
2022-12-17T21:36:51.757Z,100266.00
2022-12-17T21:39:20.375Z,100260.73
2022-12-17T21:42:08.543Z,100273.34
2022-12-17T21:44:37.011Z,100271.05
2022-12-17T21:47:04.827Z,100278.80
2022-12-17T21:49:32.597Z,100278.78
2022-12-17T21:52:01.744Z,100280.70
2022-12-17T21:54:29.507Z,100286.30
2022-12-17T21:56:57.186Z,100283.63
2022-12-17T21:59:24.910Z,100284.27
2022-12-17T22:01:52.785Z,100290.15
2022-12-17T22:04:21.016Z,100288.23
2022-12-17T22:06:53.769Z,100293.27
2022-12-17T22:09:59.732Z,100296.71
2022-12-17T22:12:40.515Z,100295.25
2022-12-17T22:15:11.227Z,100297.58
2022-12-17T22:17:41.171Z,100300.35
2022-12-17T22:20:10.028Z,100302.79
2022-12-17T22:22:37.795Z,100303.90
2022-12-17T22:25:10.252Z,100307.02
2022-12-17T22:27:41.038Z,100312.48
2022-12-17T22:30:32.635Z,100315.17
2022-12-17T22:33:05.680Z,100323.42
2022-12-17T22:37:41.691Z,100324.64
2022-12-17T22:43:58.550Z,100323.73
2022-12-17T22:44:44.343Z,100331.45
2022-12-17T22:44:49.498Z,100325.76
2022-12-17T22:47:15.773Z,100332.55
2022-12-17T22:49:44.569Z,100335.65
2022-12-17T22:52:12.487Z,100338.13
2022-12-17T22:54:40.503Z,100342.27
2022-12-17T22:57:33.565Z,100338.30
2022-12-17T22:59:56.054Z,100343.06
2022-12-17T23:02:24.070Z,100341.71
2022-12-17T23:04:51.937Z,100345.19
2022-12-17T23:07:19.548Z,100348.91
2022-12-17T23:09:47.192Z,100342.30
2022-12-17T23:12:33.680Z,100348.23
2022-12-17T23:15:01.303Z,100353.45
2022-12-17T23:17:28.943Z,100356.70
2022-12-17T23:19:56.576Z,100363.46
2022-12-17T23:22:24.903Z,100365.77
2022-12-17T23:24:52.877Z,100363.04
2022-12-17T23:27:20.580Z,100369.39
2022-12-17T23:29:48.287Z,100376.27
2022-12-17T23:32:16.039Z,100381.17
2022-12-17T23:34:43.693Z,100384.97
2022-12-17T23:37:11.341Z,100385.30
2022-12-17T23:39:39.098Z,100388.27
2022-12-17T23:42:07.020Z,100394.13
2022-12-17T23:44:34.633Z,100398.52
2022-12-17T23:47:02.282Z,100398.97
2022-12-17T23:49:29.896Z,100401.52
2022-12-17T23:51:57.531Z,100411.17
2022-12-17T23:54:25.661Z,100408.18
2022-12-17T23:56:53.293Z,100405.65
2022-12-17T23:59:20.907Z,100407.33
